createdAt,value
2018-01-03T00:00:12.516Z,82.00
2018-01-03T00:02:40.451Z,82.10
2018-01-03T00:05:08.012Z,82.00
2018-01-03T00:07:35.545Z,82.00
2018-01-03T00:10:03.483Z,81.90
2018-01-03T00:12:31.053Z,81.80
2018-01-03T00:14:58.669Z,81.70
2018-01-03T00:17:26.591Z,81.30
2018-01-03T00:19:54.532Z,80.50
2018-01-03T00:22:22.048Z,80.40
2018-01-03T00:24:49.934Z,80.30
2018-01-03T00:27:17.900Z,80.30
2018-01-03T00:29:45.816Z,80.30
2018-01-03T00:32:13.356Z,80.40
2018-01-03T00:34:41.278Z,80.30
2018-01-03T00:37:08.778Z,80.30
2018-01-03T00:39:36.736Z,80.20
2018-01-03T00:42:04.269Z,80.30
2018-01-03T00:44:31.998Z,80.40
2018-01-03T00:46:59.499Z,80.80
2018-01-03T00:49:27.009Z,81.10
2018-01-03T00:51:54.508Z,81.20
2018-01-03T00:54:22.045Z,81.50
2018-01-03T00:56:49.954Z,81.80
2018-01-03T00:59:17.897Z,82.10
2018-01-03T01:01:45.791Z,82.60
2018-01-03T01:04:13.302Z,82.80
2018-01-03T01:06:41.213Z,82.80
2018-01-03T01:09:08.705Z,82.90
2018-01-03T01:11:36.218Z,83.00
2018-01-03T01:14:03.728Z,83.10
2018-01-03T01:16:31.634Z,83.20
2018-01-03T01:18:59.527Z,83.40
2018-01-03T01:21:27.819Z,83.40
2018-01-03T01:23:55.707Z,83.50
2018-01-03T01:26:23.240Z,83.50
2018-01-03T01:28:50.754Z,83.70
2018-01-03T01:31:18.266Z,83.80
2018-01-03T01:33:45.796Z,83.90
2018-01-03T01:36:13.692Z,84.20
2018-01-03T01:38:41.215Z,84.30
2018-01-03T01:41:09.112Z,84.60
2018-01-03T01:43:36.637Z,84.80
2018-01-03T01:46:04.130Z,85.10
2018-01-03T01:48:32.035Z,85.30
2018-01-03T01:51:00.666Z,85.40
2018-01-03T01:53:28.180Z,85.50
2018-01-03T01:55:56.148Z,85.50
2018-01-03T01:58:23.682Z,85.80
2018-01-03T02:00:51.182Z,85.90
2018-01-03T02:03:18.682Z,86.00
2018-01-03T02:05:46.202Z,86.10
2018-01-03T02:08:13.695Z,86.20
2018-01-03T02:10:41.978Z,86.50
2018-01-03T02:13:09.475Z,86.50
2018-01-03T02:15:36.990Z,86.60
2018-01-03T02:18:04.482Z,86.70
2018-01-03T02:20:32.390Z,86.80
2018-01-03T02:23:00.290Z,87.00
2018-01-03T02:25:27.818Z,87.30
2018-01-03T02:27:55.914Z,87.10
2018-01-03T02:30:23.438Z,87.40
2018-01-03T02:32:51.329Z,87.50
2018-01-03T02:35:18.849Z,87.20
2018-01-03T02:37:46.766Z,87.50
2018-01-03T02:40:14.664Z,87.50
2018-01-03T02:42:42.175Z,87.60
2018-01-03T02:45:09.683Z,87.60
2018-01-03T02:47:37.190Z,87.60
2018-01-03T02:50:04.679Z,87.60
2018-01-03T02:52:32.195Z,87.70
2018-01-03T02:54:59.691Z,88.00
2018-01-03T02:57:27.601Z,88.00
2018-01-03T02:59:55.498Z,88.10
2018-01-03T03:02:23.030Z,88.20
2018-01-03T03:04:50.927Z,88.40
2018-01-03T03:07:18.421Z,88.50
2018-01-03T03:09:46.326Z,88.50
2018-01-03T03:12:14.220Z,88.30
2018-01-03T03:14:41.746Z,88.30
2018-01-03T03:17:09.241Z,88.40
2018-01-03T03:19:37.515Z,88.40
2018-01-03T03:22:05.033Z,88.50
2018-01-03T03:24:32.984Z,88.50
2018-01-03T03:27:00.491Z,88.70
2018-01-03T03:29:28.017Z,88.70
2018-01-03T03:31:55.510Z,88.80
2018-01-03T03:34:23.028Z,88.70
2018-01-03T03:36:51.286Z,88.70
2018-01-03T03:39:19.189Z,88.80
2018-01-03T03:41:46.702Z,89.00
2018-01-03T03:44:14.954Z,88.80
2018-01-03T03:46:42.878Z,88.70
2018-01-03T03:49:10.379Z,89.10
2018-01-03T03:51:37.894Z,89.10
2018-01-03T03:54:05.775Z,89.10
2018-01-03T03:56:33.683Z,89.00
2018-01-03T03:59:01.574Z,88.90
2018-01-03T04:01:29.092Z,89.00
2018-01-03T04:03:56.587Z,89.00
2018-01-03T04:06:24.111Z,88.90
2018-01-03T04:08:52.010Z,88.90
2018-01-03T04:11:19.927Z,89.10
2018-01-03T04:13:47.419Z,88.90
2018-01-03T04:16:15.353Z,88.90
2018-01-03T04:18:43.259Z,89.00
2018-01-03T04:21:11.146Z,89.10
2018-01-03T04:23:39.054Z,89.00
2018-01-03T04:26:06.952Z,88.90
2018-01-03T04:28:34.489Z,89.00
2018-01-03T04:31:01.996Z,88.90
2018-01-03T04:33:29.522Z,89.10
2018-01-03T04:35:57.011Z,88.90
2018-01-03T04:38:25.292Z,89.00
2018-01-03T04:40:52.805Z,88.90
2018-01-03T04:43:20.316Z,89.00
2018-01-03T04:45:48.354Z,89.10
2018-01-03T04:48:16.263Z,89.00
2018-01-03T04:50:44.155Z,89.10
2018-01-03T04:53:11.646Z,88.80
2018-01-03T04:55:39.574Z,88.90
2018-01-03T04:58:07.480Z,88.80
2018-01-03T05:00:34.996Z,89.00
2018-01-03T05:03:03.260Z,89.00
2018-01-03T05:05:30.782Z,88.90
2018-01-03T05:07:58.282Z,88.80
2018-01-03T05:10:26.193Z,88.80
2018-01-03T05:12:54.079Z,88.90
2018-01-03T05:15:21.622Z,88.70
2018-01-03T05:17:49.590Z,88.80
2018-01-03T05:20:17.241Z,88.80
2018-01-03T05:22:45.149Z,88.60
2018-01-03T05:25:12.649Z,88.50
2018-01-03T05:27:40.565Z,88.60
2018-01-03T05:30:08.069Z,88.50
2018-01-03T05:32:35.994Z,88.50
2018-01-03T05:37:33.498Z,88.50
2018-01-03T05:40:00.985Z,88.30
2018-01-03T05:42:28.527Z,88.40
2018-01-03T05:44:56.023Z,88.40
2018-01-03T05:47:23.922Z,88.50
2018-01-03T05:49:51.451Z,88.60
2018-01-03T05:52:18.943Z,88.50
2018-01-03T05:54:46.920Z,88.50
2018-01-03T05:57:14.823Z,88.40
2018-01-03T05:59:42.359Z,88.50
2018-01-03T06:02:09.853Z,88.50
2018-01-03T06:04:37.766Z,88.50
2018-01-03T06:07:05.263Z,88.40
2018-01-03T06:09:32.785Z,88.50
2018-01-03T06:12:00.670Z,88.40
2018-01-03T06:14:28.188Z,88.40
2018-01-03T06:16:55.678Z,88.40
2018-01-03T06:19:23.207Z,88.20
2018-01-03T06:21:50.714Z,88.20
2018-01-03T06:24:19.278Z,88.00
2018-01-03T06:26:47.216Z,87.70
2018-01-03T06:29:15.101Z,87.70
2018-01-03T06:31:44.216Z,87.60
2018-01-03T06:34:11.723Z,87.60
2018-01-03T06:36:39.238Z,88.00
2018-01-03T06:39:07.125Z,88.00
2018-01-03T06:41:34.642Z,88.00
2018-01-03T06:44:02.599Z,87.80
2018-01-03T06:46:30.512Z,87.80
2018-01-03T06:48:58.010Z,87.80
2018-01-03T06:51:26.294Z,88.10
2018-01-03T06:53:53.793Z,88.10
2018-01-03T06:56:21.457Z,88.10
2018-01-03T06:58:48.966Z,88.00
2018-01-03T07:01:16.863Z,88.00
2018-01-03T07:03:44.775Z,88.00
2018-01-03T07:06:12.675Z,87.70
2018-01-03T07:08:40.597Z,87.70
2018-01-03T07:11:08.484Z,87.80
2018-01-03T07:13:36.407Z,87.70
2018-01-03T07:16:04.040Z,87.70
2018-01-03T07:18:31.533Z,87.70
2018-01-03T07:21:00.270Z,87.80
2018-01-03T07:23:28.159Z,88.00
2018-01-03T07:25:55.683Z,88.00
2018-01-03T07:28:23.583Z,88.00
2018-01-03T07:30:51.545Z,88.00
2018-01-03T07:33:19.034Z,87.60
2018-01-03T07:35:46.949Z,87.60
2018-01-03T07:38:14.522Z,87.70
2018-01-03T07:40:42.450Z,87.30
2018-01-03T07:43:10.338Z,87.10
2018-01-03T07:45:37.834Z,87.00
2018-01-03T07:48:05.356Z,86.80
2018-01-03T07:50:34.044Z,86.80
2018-01-03T07:53:01.949Z,86.70
2018-01-03T07:55:29.835Z,86.80
2018-01-03T07:57:57.345Z,86.50
2018-01-03T08:00:24.826Z,86.50
2018-01-03T08:02:53.102Z,86.20
2018-01-03T08:05:20.994Z,86.30
2018-01-03T08:07:48.522Z,86.20
2018-01-03T08:10:16.045Z,86.00
2018-01-03T08:12:43.542Z,86.20
2018-01-03T08:15:11.450Z,86.00
2018-01-03T08:17:39.339Z,86.00
2018-01-03T08:20:06.867Z,86.00
2018-01-03T08:22:34.354Z,86.10
2018-01-03T08:25:01.866Z,86.10
2018-01-03T08:27:29.538Z,85.80
2018-01-03T08:29:57.050Z,85.80
2018-01-03T08:32:24.943Z,85.80
2018-01-03T08:34:52.482Z,85.80
2018-01-03T08:37:20.173Z,85.70
2018-01-03T08:39:47.791Z,85.50
2018-01-03T08:42:15.292Z,85.60
2018-01-03T08:44:42.782Z,85.40
2018-01-03T08:47:10.703Z,84.90
2018-01-03T08:49:38.261Z,84.40
2018-01-03T08:52:06.176Z,84.20
2018-01-03T08:54:33.675Z,83.50
2018-01-03T08:57:01.200Z,82.50
2018-01-03T08:59:28.695Z,81.90
2018-01-03T09:01:56.253Z,81.60
2018-01-03T09:04:23.771Z,81.30
2018-01-03T09:06:51.328Z,80.80
2018-01-03T09:09:19.227Z,80.30
2018-01-03T09:11:46.752Z,80.00
2018-01-03T09:14:14.252Z,79.50
2018-01-03T09:16:41.778Z,79.40
2018-01-03T09:19:09.273Z,79.50
2018-01-03T09:21:36.762Z,79.40
2018-01-03T09:24:04.716Z,79.10
2018-01-03T09:26:32.321Z,79.20
2018-01-03T09:29:00.230Z,79.80
2018-01-03T09:31:28.126Z,80.10
2018-01-03T09:33:56.048Z,80.40
2018-01-03T09:36:24.338Z,81.10
2018-01-03T09:38:51.855Z,81.50
2018-01-03T09:41:19.753Z,83.10
2018-01-03T09:43:47.671Z,84.10
2018-01-03T09:46:15.168Z,85.20
2018-01-03T09:48:43.437Z,84.70
2018-01-03T09:51:11.326Z,85.30
2018-01-03T09:53:39.638Z,86.20
2018-01-03T09:56:07.135Z,86.00
2018-01-03T09:58:34.621Z,86.30
2018-01-03T10:01:02.534Z,87.20
2018-01-03T10:03:30.031Z,87.50
2018-01-03T10:05:57.548Z,87.80
2018-01-03T10:08:25.451Z,88.30
2018-01-03T10:10:53.374Z,88.60
2018-01-03T10:13:20.871Z,88.70
2018-01-03T10:15:48.774Z,88.80
2018-01-03T10:18:16.271Z,89.00
2018-01-03T10:20:43.791Z,89.00
2018-01-03T10:23:11.282Z,89.00
2018-01-03T10:25:38.803Z,89.10
2018-01-03T10:28:06.301Z,88.90
2018-01-03T10:30:33.816Z,88.90
2018-01-03T10:33:01.328Z,88.90
2018-01-03T10:35:28.819Z,89.00
2018-01-03T10:37:56.329Z,89.00
2018-01-03T10:40:24.230Z,89.20
2018-01-03T10:42:51.749Z,89.40
2018-01-03T10:45:19.259Z,89.10
2018-01-03T10:47:47.178Z,89.10
2018-01-03T10:50:15.541Z,89.10
2018-01-03T10:52:43.069Z,89.40
2018-01-03T10:55:10.559Z,89.20
2018-01-03T10:57:38.455Z,89.20
2018-01-03T11:00:06.729Z,89.20
2018-01-03T11:02:34.222Z,89.10
2018-01-03T11:05:02.171Z,89.20
2018-01-03T11:07:29.638Z,89.20
2018-01-03T11:09:57.586Z,89.40
2018-01-03T11:12:25.086Z,89.20
2018-01-03T11:14:52.997Z,89.40
2018-01-03T11:17:20.498Z,89.60
2018-01-03T11:19:48.019Z,89.80
2018-01-03T11:22:15.519Z,89.80
2018-01-03T11:24:43.042Z,89.60
2018-01-03T11:27:10.534Z,89.40
2018-01-03T11:29:38.054Z,89.20
2018-01-03T11:32:05.967Z,89.10
2018-01-03T11:34:33.458Z,89.10
2018-01-03T11:37:00.971Z,89.20
2018-01-03T11:39:28.471Z,89.40
2018-01-03T11:41:55.991Z,89.70
2018-01-03T11:44:23.485Z,89.70
2018-01-03T11:46:51.394Z,89.90
2018-01-03T11:49:19.278Z,89.90
2018-01-03T11:51:46.805Z,89.90
2018-01-03T11:54:14.307Z,89.80
2018-01-03T11:56:41.830Z,89.80
2018-01-03T11:59:09.246Z,89.70
2018-01-03T12:01:36.750Z,89.70
2018-01-03T12:04:04.676Z,89.90
2018-01-03T12:06:32.607Z,89.90
2018-01-03T12:09:00.146Z,90.00
2018-01-03T12:11:28.774Z,90.00
2018-01-03T12:13:56.687Z,89.90
2018-01-03T12:16:24.183Z,89.50
2018-01-03T12:18:51.702Z,89.20
2018-01-03T12:21:19.298Z,89.40
2018-01-03T12:23:46.827Z,89.20
2018-01-03T12:26:14.348Z,89.40
2018-01-03T12:28:43.006Z,89.40
2018-01-03T12:31:10.511Z,89.10
2018-01-03T12:33:38.023Z,89.20
2018-01-03T12:36:05.933Z,89.20
2018-01-03T12:38:33.831Z,89.00
2018-01-03T12:41:01.384Z,89.00
2018-01-03T12:43:28.850Z,88.60
2018-01-03T12:45:56.360Z,88.00
2018-01-03T12:48:23.868Z,88.30
2018-01-03T12:50:52.158Z,88.10
2018-01-03T12:53:20.074Z,88.10
2018-01-03T12:55:47.601Z,88.20
2018-01-03T12:58:15.241Z,88.30
2018-01-03T13:00:43.170Z,88.40
2018-01-03T13:03:11.061Z,88.20
2018-01-03T13:05:38.957Z,88.40
2018-01-03T13:08:06.491Z,88.30
2018-01-03T13:10:33.984Z,88.20
2018-01-03T13:13:01.894Z,88.10
2018-01-03T13:15:30.158Z,88.20
2018-01-03T13:17:58.069Z,88.20
2018-01-03T13:20:25.565Z,88.20
2018-01-03T13:22:53.085Z,88.20
2018-01-03T13:25:20.569Z,88.20
2018-01-03T13:27:48.058Z,88.30
2018-01-03T13:30:15.968Z,88.40
2018-01-03T13:32:43.478Z,88.40
2018-01-03T13:35:10.981Z,88.70
2018-01-03T13:37:38.471Z,88.60
2018-01-03T13:40:06.023Z,88.50
2018-01-03T13:42:33.530Z,88.60
2018-01-03T13:45:01.430Z,88.50
2018-01-03T13:47:29.358Z,88.50
2018-01-03T13:49:57.266Z,88.30
2018-01-03T13:52:24.787Z,88.30
2018-01-03T13:54:52.686Z,88.00
2018-01-03T13:57:20.583Z,87.80
2018-01-03T13:59:48.083Z,88.00
2018-01-03T14:02:15.599Z,87.70
2018-01-03T14:04:43.227Z,87.70
2018-01-03T14:07:10.738Z,87.70
2018-01-03T14:09:38.225Z,87.50
2018-01-03T14:12:05.730Z,87.50
2018-01-03T14:14:33.239Z,87.40
2018-01-03T14:17:01.163Z,87.30
2018-01-03T14:19:29.051Z,87.00
2018-01-03T14:21:56.683Z,87.30
2018-01-03T14:24:24.185Z,87.20
2018-01-03T14:26:51.687Z,87.20
2018-01-03T14:29:19.609Z,87.20
2018-01-03T14:31:47.112Z,87.20
2018-01-03T14:34:15.050Z,87.30
2018-01-03T14:36:42.951Z,87.40
2018-01-03T14:39:10.466Z,87.40
2018-01-03T14:41:37.967Z,87.30
2018-01-03T14:44:05.482Z,87.30
2018-01-03T14:46:33.384Z,87.30
2018-01-03T14:49:01.299Z,87.30
2018-01-03T14:51:29.190Z,87.40
2018-01-03T14:53:56.683Z,87.00
2018-01-03T14:56:24.233Z,87.10
2018-01-03T14:58:51.765Z,87.10
2018-01-03T15:01:19.288Z,87.00
2018-01-03T15:03:47.184Z,86.90
2018-01-03T15:06:15.505Z,86.70
2018-01-03T15:08:43.013Z,86.70
2018-01-03T15:11:10.530Z,86.70
2018-01-03T15:13:38.423Z,86.70
2018-01-03T15:16:07.011Z,86.60
2018-01-03T15:18:34.509Z,86.50
2018-01-03T15:21:02.022Z,86.30
2018-01-03T15:23:29.543Z,86.30
2018-01-03T15:25:57.035Z,86.20
2018-01-03T15:28:24.557Z,86.50
2018-01-03T15:30:52.489Z,86.30
2018-01-03T15:33:19.994Z,86.10
2018-01-03T15:35:47.482Z,86.00
2018-01-03T15:38:15.010Z,85.70
2018-01-03T15:40:42.507Z,85.90
2018-01-03T15:43:10.028Z,86.00
2018-01-03T15:45:37.524Z,85.90
2018-01-03T15:48:05.050Z,85.70
2018-01-03T15:50:32.589Z,85.80
2018-01-03T15:53:00.122Z,85.80
2018-01-03T15:55:28.001Z,85.80
2018-01-03T15:57:55.494Z,85.80
2018-01-03T16:00:23.007Z,85.80
2018-01-03T16:02:50.510Z,85.90
2018-01-03T16:05:18.443Z,85.90
2018-01-03T16:07:45.939Z,86.00
2018-01-03T16:10:13.461Z,86.00
2018-01-03T16:12:41.726Z,85.90
2018-01-03T16:15:09.254Z,85.90
2018-01-03T16:17:37.153Z,85.90
2018-01-03T16:20:04.690Z,85.80
2018-01-03T16:22:32.578Z,85.90
2018-01-03T16:25:00.148Z,85.90
2018-01-03T16:27:27.647Z,85.90
2018-01-03T16:29:55.606Z,85.90
2018-01-03T16:32:23.568Z,85.90
2018-01-03T16:34:51.826Z,85.80
2018-01-03T16:37:19.363Z,85.80
2018-01-03T16:39:46.877Z,85.70
2018-01-03T16:42:14.407Z,85.50
2018-01-03T16:44:41.918Z,85.60
2018-01-03T16:47:09.442Z,85.60
2018-01-03T16:49:37.327Z,85.60
2018-01-03T16:52:11.185Z,85.50
2018-01-03T16:54:38.725Z,85.40
2018-01-03T16:57:06.328Z,85.30
2018-01-03T16:59:33.836Z,84.90
2018-01-03T17:02:01.809Z,84.80
2018-01-03T17:04:29.701Z,84.80
2018-01-03T17:06:57.602Z,84.70
2018-01-03T17:09:25.506Z,84.60
2018-01-03T17:11:52.998Z,84.30
2018-01-03T17:14:20.566Z,84.40
2018-01-03T17:16:48.110Z,84.20
2018-01-03T17:19:15.617Z,84.10
2018-01-03T17:21:43.514Z,84.10
2018-01-03T17:24:11.418Z,84.20
2018-01-03T17:26:40.066Z,84.20
2018-01-03T17:29:07.978Z,84.00
2018-01-03T17:31:35.531Z,83.90
2018-01-03T17:34:03.074Z,83.70
2018-01-03T17:36:30.996Z,83.90
2018-01-03T17:41:28.274Z,83.40
2018-01-03T17:43:55.820Z,83.40
2018-01-03T17:46:23.444Z,83.30
2018-01-03T17:48:50.994Z,83.30
2018-01-03T17:51:19.269Z,83.20
2018-01-03T17:53:46.755Z,83.20
2018-01-03T17:56:15.080Z,83.20
2018-01-03T17:58:42.961Z,83.30
2018-01-03T18:01:12.033Z,83.20
2018-01-03T18:03:39.541Z,83.20
2018-01-03T18:06:07.048Z,83.10
2018-01-03T18:08:34.606Z,83.00
2018-01-03T18:11:02.157Z,82.90
2018-01-03T18:13:30.064Z,83.00
2018-01-03T18:15:58.044Z,83.10
2018-01-03T18:18:26.335Z,83.00
2018-01-03T18:20:53.827Z,82.90
2018-01-03T18:23:21.405Z,82.90
2018-01-03T18:25:49.296Z,82.80
2018-01-03T18:28:17.232Z,82.80
2018-01-03T18:30:44.746Z,82.70
2018-01-03T18:33:12.293Z,82.80
2018-01-03T18:35:39.862Z,82.70
2018-01-03T18:38:07.409Z,82.60
2018-01-03T18:40:34.922Z,82.60
2018-01-03T18:43:03.969Z,82.60
2018-01-03T18:45:31.536Z,82.60
2018-01-03T18:47:59.478Z,82.60
2018-01-03T18:50:27.445Z,82.50
2018-01-03T18:52:55.392Z,82.00
2018-01-03T18:55:22.963Z,82.00
2018-01-03T18:57:51.315Z,81.90
2018-01-03T19:00:19.229Z,81.80
2018-01-03T19:02:47.198Z,81.70
2018-01-03T19:05:14.745Z,81.60
2018-01-03T19:07:42.313Z,81.50
2018-01-03T19:10:10.507Z,81.30
2018-01-03T19:12:38.080Z,81.30
2018-01-03T19:15:06.552Z,81.30
2018-01-03T19:17:34.118Z,81.10
2018-01-03T19:20:01.669Z,81.20
2018-01-03T19:22:29.234Z,81.30
2018-01-03T19:24:57.174Z,81.30
2018-01-03T19:27:25.138Z,81.40
2018-01-03T19:29:52.681Z,81.30
2018-01-03T19:34:49.141Z,81.40
2018-01-03T19:37:17.451Z,81.50
2018-01-03T19:39:45.478Z,81.60
2018-01-03T19:44:41.941Z,81.40
2018-01-03T19:47:09.881Z,81.50
2018-01-03T19:49:37.458Z,81.50
2018-01-03T19:52:05.001Z,81.50
2018-01-03T19:54:32.984Z,81.40
2018-01-03T19:57:00.529Z,81.50
2018-01-03T19:59:28.117Z,81.60
2018-01-03T20:01:55.666Z,81.70
2018-01-03T20:04:23.603Z,81.80
2018-01-03T20:06:51.561Z,81.80
2018-01-03T20:09:19.528Z,81.80
2018-01-03T20:11:47.497Z,81.70
2018-01-03T20:14:15.057Z,81.60
2018-01-03T20:16:43.013Z,81.50
2018-01-03T20:19:10.954Z,81.60
2018-01-03T20:21:38.525Z,81.60
2018-01-03T20:24:06.847Z,81.70
2018-01-03T20:26:34.820Z,81.40
2018-01-03T20:29:02.770Z,81.40
2018-01-03T20:31:30.338Z,81.30
2018-01-03T20:33:57.898Z,81.20
2018-01-03T20:36:25.835Z,81.00
2018-01-03T20:38:53.400Z,80.80
2018-01-03T20:41:20.940Z,80.90
2018-01-03T20:43:48.912Z,80.80
2018-01-03T20:46:16.466Z,80.80
2018-01-03T20:48:44.428Z,80.80
2018-01-03T20:51:12.741Z,80.80
2018-01-03T20:53:40.706Z,80.60
2018-01-03T20:56:08.258Z,80.40
2018-01-03T20:58:35.836Z,80.30
2018-01-03T21:01:03.783Z,80.20
2018-01-03T21:03:31.351Z,80.20
2018-01-03T21:05:58.898Z,80.30
2018-01-03T21:08:27.207Z,80.20
2018-01-03T21:10:54.764Z,80.20
2018-01-03T21:13:22.303Z,80.20
2018-01-03T21:15:49.873Z,80.20
2018-01-03T21:18:17.406Z,80.20
2018-01-03T21:20:44.982Z,80.20
2018-01-03T21:23:12.530Z,80.10
2018-01-03T21:25:40.085Z,80.10
2018-01-03T21:28:07.629Z,80.20
2018-01-03T21:30:35.211Z,80.30
2018-01-03T21:33:02.762Z,80.20
2018-01-03T21:38:00.378Z,80.10
2018-01-03T21:40:28.327Z,80.20
2018-01-03T21:42:55.902Z,80.30
2018-01-03T21:45:23.478Z,80.40
2018-01-03T21:47:51.042Z,80.40
2018-01-03T21:50:18.609Z,80.40
2018-01-03T21:52:46.181Z,80.50
2018-01-03T21:55:13.727Z,80.50
2018-01-03T21:57:41.293Z,80.40
2018-01-03T22:00:08.842Z,80.90
2018-01-03T22:02:36.430Z,80.40
2018-01-03T22:05:04.374Z,80.50
2018-01-03T22:07:31.922Z,80.60
2018-01-03T22:09:59.480Z,80.60
2018-01-03T22:12:27.027Z,81.00
2018-01-03T22:14:54.996Z,81.00
2018-01-03T22:17:22.934Z,81.10
2018-01-03T22:19:51.633Z,81.10
2018-01-03T22:22:19.165Z,81.10
2018-01-03T22:24:46.731Z,81.00
2018-01-03T22:27:14.278Z,81.10
2018-01-03T22:29:42.239Z,81.10
2018-01-03T22:32:09.808Z,81.20
2018-01-03T22:34:37.367Z,81.10
2018-01-03T22:37:04.937Z,81.00
2018-01-03T22:39:32.480Z,81.10
2018-01-03T22:42:00.037Z,81.00
2018-01-03T22:44:27.589Z,81.00
2018-01-03T22:46:55.930Z,81.10
2018-01-03T22:49:23.495Z,81.10
2018-01-03T22:51:51.458Z,81.10
2018-01-03T22:54:19.000Z,81.00
2018-01-03T22:56:46.970Z,81.10
2018-01-03T22:59:14.505Z,81.10
2018-01-03T23:01:42.070Z,81.10
2018-01-03T23:04:10.110Z,81.20
2018-01-03T23:06:37.646Z,81.10
2018-01-03T23:09:05.203Z,81.10
2018-01-03T23:11:32.745Z,81.10
2018-01-03T23:14:00.307Z,81.20
2018-01-03T23:16:27.849Z,81.20
2018-01-03T23:18:56.182Z,81.40
2018-01-03T23:21:23.730Z,81.40
2018-01-03T23:23:51.664Z,81.40
2018-01-03T23:26:19.621Z,81.30
2018-01-03T23:28:47.171Z,81.40
2018-01-03T23:31:14.734Z,81.30
2018-01-03T23:33:42.278Z,81.30
2018-01-03T23:36:09.880Z,81.30
2018-01-03T23:38:37.410Z,81.40
2018-01-03T23:41:05.342Z,81.40
2018-01-03T23:43:33.282Z,81.50
2018-01-03T23:46:01.237Z,81.60
2018-01-03T23:48:28.782Z,81.60
2018-01-03T23:50:56.334Z,81.70
2018-01-03T23:53:23.893Z,81.70
2018-01-03T23:55:51.438Z,81.70
2018-01-03T23:58:18.991Z,81.80
